Time;durP1;ratioP1;P1;durP2;ratioP2;P2;SDS_P1;SDS_P2;PMS_P1;PMS_P2;Temp;Humidity;BMP_temperature;BMP_pressure;BME280_temperature;BME280_humidity;BME280_pressure;Samples;Min_cycle;Max_cycle;Signal;HPM_P1;HPM_P2
2022/04/05 00:00:47;;;;;;;24.13;13.43;;;;;;;;;;5052958;28;20208;-72
2022/04/05 00:03:12;;;;;;;26.17;13.17;;;;;;;;;;5048400;28;20197;-71
2022/04/05 00:05:37;;;;;;;18.47;13.03;;;;;;;;;;5049980;28;20222;-69
2022/04/05 00:08:03;;;;;;;27.13;12.57;;;;;;;;;;5051170;28;20727;-71
2022/04/05 00:10:28;;;;;;;28.60;13.10;;;;;;;;;;5049132;28;20173;-69
2022/04/05 00:12:53;;;;;;;26.27;14.03;;;;;;;;;;5053134;28;20486;-69
2022/04/05 00:15:19;;;;;;;26.57;13.50;;;;;;;;;;5052888;28;20255;-70
2022/04/05 00:17:44;;;;;;;26.33;13.50;;;;;;;;;;5052977;28;20671;-70
2022/04/05 00:20:09;;;;;;;30.00;13.73;;;;;;;;;;5052662;28;20604;-70
2022/04/05 00:22:35;;;;;;;29.20;14.30;;;;;;;;;;5052124;28;20192;-70
2022/04/05 00:25:00;;;;;;;36.20;14.80;;;;;;;;;;5052775;28;20635;-70
2022/04/05 00:27:25;;;;;;;34.83;15.60;;;;;;;;;;5052718;28;20243;-71
2022/04/05 00:29:51;;;;;;;28.53;13.60;;;;;;;;;;5046046;28;20659;-69
2022/04/05 00:32:16;;;;;;;27.67;14.13;;;;;;;;;;5039348;28;20186;-70
2022/04/05 00:34:41;;;;;;;28.37;13.73;;;;;;;;;;5044893;28;20181;-69
2022/04/05 00:37:06;;;;;;;22.07;12.50;;;;;;;;;;5052564;28;20173;-69
2022/04/05 00:39:32;;;;;;;26.10;12.40;;;;;;;;;;5049673;28;20671;-68
2022/04/05 00:41:57;;;;;;;25.30;11.50;;;;;;;;;;5047910;28;20174;-70
2022/04/05 00:44:23;;;;;;;24.73;11.47;;;;;;;;;;5052126;28;20182;-69
2022/04/05 00:46:49;;;;;;;28.63;11.53;;;;;;;;;;5046718;28;20632;-69
2022/04/05 00:49:24;;;;;;;20.40;11.30;;;;;;;;;;5040434;28;20217;-69
2022/04/05 00:51:49;;;;;;;25.23;11.77;;;;;;;;;;5042532;28;20177;-71
2022/04/05 00:54:15;;;;;;;19.33;10.73;;;;;;;;;;5059621;28;20217;-69
2022/04/05 00:56:40;;;;;;;33.53;10.37;;;;;;;;;;5050329;28;20178;-70
2022/04/05 00:59:07;;;;;;;24.87;11.30;;;;;;;;;;5041217;28;20288;-70
2022/04/05 01:01:32;;;;;;;17.77;8.93;;;;;;;;;;5044887;28;20244;-70
2022/04/05 01:03:57;;;;;;;11.87;7.33;;;;;;;;;;5045155;28;20178;-71
2022/04/05 01:06:26;;;;;;;11.47;6.53;;;;;;;;;;5051926;28;20178;-69
2022/04/05 01:08:52;;;;;;;9.53;6.10;;;;;;;;;;5041344;28;20198;-71
2022/04/05 01:11:17;;;;;;;10.60;6.50;;;;;;;;;;5046575;28;20181;-69
2022/04/05 01:13:43;;;;;;;7.23;5.20;;;;;;;;;;5046544;28;20269;-68
2022/04/05 01:16:10;;;;;;;6.30;5.47;;;;;;;;;;5051821;28;20640;-71
2022/04/05 01:18:35;;;;;;;7.10;5.13;;;;;;;;;;5051603;28;20201;-70
2022/04/05 01:21:01;;;;;;;13.50;4.93;;;;;;;;;;5047731;28;20196;-71
2022/04/05 01:23:26;;;;;;;6.13;4.30;;;;;;;;;;5051605;28;20187;-70
2022/04/05 01:25:52;;;;;;;6.20;5.03;;;;;;;;;;5050917;28;20257;-70
2022/04/05 01:28:17;;;;;;;7.57;4.10;;;;;;;;;;5047394;28;20193;-70
2022/04/05 01:30:42;;;;;;;7.63;3.83;;;;;;;;;;5047460;28;20181;-70
2022/04/05 01:33:08;;;;;;;8.07;5.13;;;;;;;;;;5050694;28;20177;-71
2022/04/05 01:35:34;;;;;;;7.63;4.93;;;;;;;;;;5041554;28;20177;-69
2022/04/05 01:38:01;;;;;;;7.70;5.17;;;;;;;;;;5049728;28;20251;-70
2022/04/05 01:40:26;;;;;;;7.67;5.90;;;;;;;;;;5046434;28;20213;-70
2022/04/05 01:42:51;;;;;;;8.80;5.50;;;;;;;;;;5049037;28;20562;-70
2022/04/05 01:45:16;;;;;;;8.53;5.83;;;;;;;;;;5040258;28;20182;-70
2022/04/05 01:47:42;;;;;;;8.40;6.13;;;;;;;;;;5048986;28;20255;-70
2022/04/05 01:50:07;;;;;;;9.63;6.47;;;;;;;;;;5050186;28;20195;-70
2022/04/05 01:52:32;;;;;;;10.17;6.97;;;;;;;;;;5047399;28;20583;-72
2022/04/05 01:54:57;;;;;;;13.80;7.50;;;;;;;;;;5049312;28;20174;-69
2022/04/05 01:57:23;;;;;;;16.10;8.50;;;;;;;;;;5059762;28;20193;-69
2022/04/05 01:59:48;;;;;;;10.90;6.53;;;;;;;;;;5051363;28;20220;-69
2022/04/05 02:02:13;;;;;;;9.00;5.83;;;;;;;;;;5051051;28;20239;-69
2022/04/05 02:04:39;;;;;;;9.60;6.60;;;;;;;;;;5049707;28;20253;-70
2022/04/05 02:07:17;;;;;;;9.87;6.23;;;;;;;;;;5049021;28;20185;-69
2022/04/05 02:09:42;;;;;;;8.77;5.77;;;;;;;;;;5044771;28;20651;-69
2022/04/05 02:12:09;;;;;;;8.50;6.17;;;;;;;;;;5043613;28;20216;-69
2022/04/05 02:14:34;;;;;;;9.63;5.57;;;;;;;;;;5050540;28;20606;-70
2022/04/05 02:17:00;;;;;;;10.03;6.30;;;;;;;;;;5046927;28;20173;-69
2022/04/05 02:19:25;;;;;;;9.57;6.27;;;;;;;;;;5049753;28;20570;-69
2022/04/05 02:21:50;;;;;;;8.40;6.40;;;;;;;;;;5049690;28;20173;-70
2022/04/05 02:24:15;;;;;;;11.77;6.10;;;;;;;;;;5050377;28;20173;-69
2022/04/05 02:26:40;;;;;;;12.43;6.17;;;;;;;;;;5050844;28;20174;-70
2022/04/05 02:29:06;;;;;;;7.30;5.37;;;;;;;;;;5050622;28;20191;-70
2022/04/05 02:31:31;;;;;;;8.00;5.23;;;;;;;;;;5050773;28;20207;-70
2022/04/05 02:33:56;;;;;;;7.53;4.87;;;;;;;;;;5049979;28;20170;-71
2022/04/05 02:36:22;;;;;;;8.00;4.80;;;;;;;;;;5050653;28;20181;-71
2022/04/05 02:38:47;;;;;;;6.20;4.63;;;;;;;;;;5049562;28;20294;-68
2022/04/05 02:41:12;;;;;;;7.37;5.43;;;;;;;;;;5049219;28;20196;-71
2022/04/05 02:43:37;;;;;;;7.63;5.27;;;;;;;;;;5043614;28;20186;-69
2022/04/05 02:46:03;;;;;;;8.10;5.00;;;;;;;;;;5048602;28;20239;-70
2022/04/05 02:48:28;;;;;;;8.70;5.50;;;;;;;;;;5045570;28;20235;-70
2022/04/05 02:50:54;;;;;;;9.40;5.73;;;;;;;;;;5049487;28;20195;-71
2022/04/05 02:53:19;;;;;;;10.93;5.97;;;;;;;;;;5047679;28;20181;-69
2022/04/05 02:55:44;;;;;;;11.73;7.07;;;;;;;;;;5047129;28;20266;-71
2022/04/05 02:58:10;;;;;;;12.50;5.87;;;;;;;;;;5042704;28;20245;-71
2022/04/05 03:00:36;;;;;;;10.43;6.87;;;;;;;;;;5047561;28;20237;-70
2022/04/05 03:03:02;;;;;;;11.87;6.20;;;;;;;;;;5049771;28;20196;-70
2022/04/05 03:05:28;;;;;;;11.83;7.30;;;;;;;;;;5047908;28;20252;-71
2022/04/05 03:07:53;;;;;;;9.23;6.77;;;;;;;;;;5044344;28;20224;-71
2022/04/05 03:10:18;;;;;;;14.33;7.53;;;;;;;;;;5040438;28;20194;-71
2022/04/05 03:12:43;;;;;;;11.37;7.30;;;;;;;;;;5044056;28;20228;-69
2022/04/05 03:15:09;;;;;;;11.27;7.10;;;;;;;;;;5043216;28;20213;-68
2022/04/05 03:17:34;;;;;;;10.63;7.57;;;;;;;;;;5044440;28;20225;-68
2022/04/05 03:20:00;;;;;;;12.87;7.90;;;;;;;;;;5043742;28;20208;-71
2022/04/05 03:22:26;;;;;;;14.87;8.47;;;;;;;;;;5045188;28;20175;-69
2022/04/05 03:24:51;;;;;;;13.07;8.13;;;;;;;;;;5047082;28;20182;-71
2022/04/05 03:27:16;;;;;;;15.20;7.80;;;;;;;;;;5046771;28;20249;-71
2022/04/05 03:29:41;;;;;;;13.47;9.03;;;;;;;;;;5050394;28;20177;-71
2022/04/05 03:32:07;;;;;;;14.53;7.83;;;;;;;;;;5053729;28;20165;-68
2022/04/05 03:34:32;;;;;;;14.67;9.37;;;;;;;;;;5046342;28;20182;-71
2022/04/05 03:36:57;;;;;;;12.80;9.17;;;;;;;;;;5052453;28;20346;-69
2022/04/05 03:39:23;;;;;;;15.60;10.43;;;;;;;;;;5052759;28;20267;-70
2022/04/05 03:41:48;;;;;;;17.43;9.90;;;;;;;;;;5052233;28;20173;-70
2022/04/05 03:44:14;;;;;;;20.33;11.20;;;;;;;;;;5050540;28;20182;-71
2022/04/05 03:46:39;;;;;;;18.37;10.83;;;;;;;;;;5049356;28;20264;-69
2022/04/05 03:49:04;;;;;;;20.40;12.10;;;;;;;;;;5051915;28;20213;-70
2022/04/05 03:51:30;;;;;;;19.17;12.33;;;;;;;;;;5052562;28;20190;-70
2022/04/05 03:53:55;;;;;;;21.63;13.83;;;;;;;;;;5052078;28;20177;-70
2022/04/05 03:56:21;;;;;;;24.13;13.60;;;;;;;;;;5048901;28;20190;-69
2022/04/05 03:58:46;;;;;;;20.67;14.00;;;;;;;;;;5047865;28;20255;-70
2022/04/05 04:01:11;;;;;;;21.80;13.57;;;;;;;;;;5041948;28;20673;-69
2022/04/05 04:03:37;;;;;;;22.50;14.20;;;;;;;;;;5047274;28;20196;-70
2022/04/05 04:06:02;;;;;;;18.03;13.50;;;;;;;;;;5053253;28;20638;-71
2022/04/05 04:08:27;;;;;;;19.77;13.33;;;;;;;;;;5050735;28;20255;-70
2022/04/05 04:10:52;;;;;;;19.37;13.30;;;;;;;;;;5049127;28;20272;-71
2022/04/05 04:13:18;;;;;;;18.83;12.43;;;;;;;;;;5043771;28;20231;-71
2022/04/05 04:15:43;;;;;;;20.17;12.60;;;;;;;;;;5050641;28;20196;-71
2022/04/05 04:18:09;;;;;;;15.77;12.73;;;;;;;;;;5046837;28;20284;-71
2022/04/05 04:20:34;;;;;;;18.97;11.80;;;;;;;;;;5052912;28;20216;-68
2022/04/05 04:22:59;;;;;;;17.53;11.67;;;;;;;;;;5046417;28;20181;-70
2022/04/05 04:25:24;;;;;;;22.83;14.33;;;;;;;;;;5050992;28;20830;-70
2022/04/05 04:27:49;;;;;;;17.23;12.93;;;;;;;;;;5052545;28;20194;-70
2022/04/05 04:30:14;;;;;;;20.30;12.50;;;;;;;;;;5051549;28;20618;-70
2022/04/05 04:32:40;;;;;;;19.77;13.40;;;;;;;;;;5046975;28;20178;-69
2022/04/05 04:35:05;;;;;;;20.90;12.50;;;;;;;;;;5043511;28;20173;-70
2022/04/05 04:37:30;;;;;;;21.23;14.53;;;;;;;;;;5050758;28;20201;-71
2022/04/05 04:39:56;;;;;;;21.13;12.57;;;;;;;;;;5050586;28;20205;-70
2022/04/05 04:42:21;;;;;;;23.37;14.60;;;;;;;;;;5050198;28;20181;-69
2022/04/05 04:44:46;;;;;;;22.90;14.70;;;;;;;;;;5051147;28;20232;-70
2022/04/05 04:47:11;;;;;;;21.23;14.37;;;;;;;;;;5051519;28;20252;-69
2022/04/05 04:49:36;;;;;;;21.80;15.00;;;;;;;;;;5051181;28;20181;-69
2022/04/05 04:52:02;;;;;;;23.07;16.43;;;;;;;;;;5048238;28;20171;-70
2022/04/05 04:54:27;;;;;;;22.83;15.67;;;;;;;;;;5049105;28;20177;-70
2022/04/05 04:56:53;;;;;;;30.33;16.60;;;;;;;;;;5051014;28;20192;-69
2022/04/05 04:59:18;;;;;;;28.33;15.83;;;;;;;;;;5049626;28;20711;-70
2022/04/05 05:01:43;;;;;;;32.77;17.90;;;;;;;;;;5036680;28;20233;-70
2022/04/05 05:04:08;;;;;;;30.93;16.47;;;;;;;;;;5044558;28;20646;-70
2022/04/05 05:06:33;;;;;;;29.43;15.83;;;;;;;;;;5048496;28;20186;-70
2022/04/05 05:08:59;;;;;;;30.13;16.10;;;;;;;;;;5045326;28;20189;-72
2022/04/05 05:11:25;;;;;;;27.90;15.53;;;;;;;;;;5046361;28;20185;-69
2022/04/05 05:13:50;;;;;;;25.63;14.47;;;;;;;;;;5045066;28;20166;-69
2022/04/05 05:16:15;;;;;;;29.83;14.47;;;;;;;;;;5047914;28;20184;-70
2022/04/05 05:18:40;;;;;;;25.80;14.23;;;;;;;;;;5049790;28;20190;-70
2022/04/05 05:21:05;;;;;;;23.93;14.30;;;;;;;;;;5050434;28;20606;-70
2022/04/05 05:23:31;;;;;;;24.57;13.77;;;;;;;;;;5037395;28;20195;-70
2022/04/05 05:25:56;;;;;;;31.40;15.80;;;;;;;;;;5048710;28;20177;-70
2022/04/05 05:28:21;;;;;;;28.67;12.93;;;;;;;;;;5045398;28;20288;-70
2022/04/05 05:30:46;;;;;;;28.20;13.50;;;;;;;;;;5048063;28;20213;-70
2022/04/05 05:33:11;;;;;;;25.23;13.30;;;;;;;;;;5049514;28;20192;-67
2022/04/05 05:35:37;;;;;;;25.63;14.63;;;;;;;;;;5048563;28;20181;-70
2022/04/05 05:38:03;;;;;;;25.90;12.00;;;;;;;;;;5041794;28;20213;-71
2022/04/05 05:40:28;;;;;;;22.07;12.13;;;;;;;;;;5048356;28;20197;-71
2022/04/05 05:42:58;;;;;;;21.30;11.63;;;;;;;;;;5050413;28;20178;-70
2022/04/05 05:45:24;;;;;;;21.43;12.13;;;;;;;;;;5049464;28;20174;-71
2022/04/05 05:47:49;;;;;;;27.63;11.30;;;;;;;;;;5047880;28;20232;-67
2022/04/05 05:50:14;;;;;;;21.30;10.80;;;;;;;;;;5047080;28;20213;-70
2022/04/05 05:52:41;;;;;;;17.40;10.33;;;;;;;;;;5048960;28;20169;-70
2022/04/05 05:55:07;;;;;;;15.77;9.93;;;;;;;;;;5049023;28;20533;-70
2022/04/05 05:57:33;;;;;;;19.33;9.60;;;;;;;;;;5044231;28;20738;-70
2022/04/05 05:59:58;;;;;;;15.10;9.77;;;;;;;;;;5049204;28;20225;-68
2022/04/05 06:02:23;;;;;;;19.13;9.77;;;;;;;;;;5045530;28;20178;-70
2022/04/05 06:04:48;;;;;;;15.13;9.07;;;;;;;;;;5042691;28;20655;-71
2022/04/05 06:07:13;;;;;;;16.83;9.57;;;;;;;;;;5043871;28;20192;-70
2022/04/05 06:09:38;;;;;;;21.00;10.13;;;;;;;;;;5048384;28;20243;-70
2022/04/05 06:12:05;;;;;;;20.37;9.60;;;;;;;;;;5046872;28;20739;-70
2022/04/05 06:14:30;;;;;;;13.73;8.33;;;;;;;;;;5049111;28;20247;-70
2022/04/05 06:16:55;;;;;;;17.87;9.07;;;;;;;;;;5031238;28;20182;-70
2022/04/05 06:19:20;;;;;;;14.03;8.80;;;;;;;;;;5041526;28;20560;-70
2022/04/05 06:21:45;;;;;;;12.60;7.43;;;;;;;;;;5041305;28;20304;-70
2022/04/05 06:24:11;;;;;;;13.37;7.80;;;;;;;;;;5041537;28;20380;-70
2022/04/05 06:26:36;;;;;;;15.63;8.27;;;;;;;;;;5039406;28;20276;-70
2022/04/05 06:29:01;;;;;;;17.60;7.57;;;;;;;;;;5050540;28;20196;-70
2022/04/05 06:31:26;;;;;;;13.63;6.73;;;;;;;;;;5052345;28;20224;-71
2022/04/05 06:33:51;;;;;;;16.03;7.27;;;;;;;;;;5050751;28;20170;-70
2022/04/05 06:36:17;;;;;;;11.67;6.53;;;;;;;;;;5044385;28;20525;-68
2022/04/05 06:38:42;;;;;;;15.00;7.17;;;;;;;;;;5048147;28;20259;-71
2022/04/05 06:41:07;;;;;;;11.97;6.30;;;;;;;;;;5049452;28;20580;-68
2022/04/05 06:43:32;;;;;;;10.53;6.80;;;;;;;;;;5049081;28;20264;-68
2022/04/05 06:45:57;;;;;;;10.70;6.07;;;;;;;;;;5043870;28;20181;-69
2022/04/05 06:48:23;;;;;;;14.73;6.77;;;;;;;;;;5045170;28;20201;-69
2022/04/05 06:50:50;;;;;;;13.67;7.23;;;;;;;;;;5047889;28;20178;-69
2022/04/05 06:53:15;;;;;;;12.50;7.03;;;;;;;;;;5046302;28;20232;-69
2022/04/05 06:55:41;;;;;;;10.93;6.67;;;;;;;;;;5045570;28;20209;-69
2022/04/05 06:58:06;;;;;;;8.83;6.60;;;;;;;;;;5044920;28;20220;-71
2022/04/05 07:00:33;;;;;;;13.63;6.63;;;;;;;;;;5041942;28;20210;-70
2022/04/05 07:02:58;;;;;;;10.70;5.27;;;;;;;;;;5044268;28;20186;-70
2022/04/05 07:05:24;;;;;;;11.33;5.80;;;;;;;;;;5050699;28;20583;-69
2022/04/05 07:07:49;;;;;;;7.57;5.60;;;;;;;;;;5046722;28;20235;-69
2022/04/05 07:10:15;;;;;;;9.20;6.17;;;;;;;;;;5051034;28;20568;-69
2022/04/05 07:12:41;;;;;;;9.63;5.80;;;;;;;;;;5049498;28;20643;-69
2022/04/05 07:15:09;;;;;;;8.73;6.47;;;;;;;;;;5048545;28;20610;-69
2022/04/05 07:17:34;;;;;;;8.10;5.00;;;;;;;;;;5052597;28;20205;-69
2022/04/05 07:19:59;;;;;;;9.80;5.73;;;;;;;;;;5051416;28;20259;-69
2022/04/05 07:22:26;;;;;;;9.30;5.53;;;;;;;;;;5041004;28;20629;-70
2022/04/05 07:24:51;;;;;;;10.80;6.03;;;;;;;;;;5048666;28;20169;-70
2022/04/05 07:27:16;;;;;;;10.23;5.20;;;;;;;;;;5046646;28;20545;-70
2022/04/05 07:29:41;;;;;;;7.17;4.30;;;;;;;;;;5029387;28;20283;-70
2022/04/05 07:32:07;;;;;;;8.33;4.93;;;;;;;;;;5049594;28;20181;-68
2022/04/05 07:34:32;;;;;;;8.50;4.50;;;;;;;;;;5054210;28;20181;-68
2022/04/05 07:36:58;;;;;;;5.77;4.53;;;;;;;;;;5045224;28;20181;-68
2022/04/05 07:39:23;;;;;;;7.20;4.90;;;;;;;;;;5049149;28;20263;-70
2022/04/05 07:41:49;;;;;;;5.87;4.50;;;;;;;;;;5045330;28;20560;-70
2022/04/05 07:44:14;;;;;;;6.77;4.30;;;;;;;;;;5050458;28;20178;-69
2022/04/05 07:46:39;;;;;;;8.90;4.40;;;;;;;;;;5047842;28;20178;-70
2022/04/05 07:49:04;;;;;;;8.83;3.80;;;;;;;;;;5049555;28;20266;-70
2022/04/05 07:51:30;;;;;;;10.03;4.40;;;;;;;;;;5050476;28;20655;-69
2022/04/05 07:53:55;;;;;;;6.07;3.60;;;;;;;;;;5050245;28;20228;-69
2022/04/05 07:56:20;;;;;;;9.10;4.03;;;;;;;;;;5045991;28;20170;-69
2022/04/05 07:58:46;;;;;;;7.40;4.20;;;;;;;;;;5050174;28;20189;-69
2022/04/05 08:01:11;;;;;;;6.50;4.07;;;;;;;;;;5044559;28;20292;-70
2022/04/05 08:03:37;;;;;;;7.83;3.80;;;;;;;;;;5048214;28;20258;-69
2022/04/05 08:06:02;;;;;;;8.63;4.20;;;;;;;;;;5049216;28;20177;-69
2022/04/05 08:08:29;;;;;;;9.43;4.47;;;;;;;;;;5051416;28;20602;-70
2022/04/05 08:10:54;;;;;;;10.83;4.13;;;;;;;;;;5053154;28;20182;-70
2022/04/05 08:13:19;;;;;;;6.43;3.80;;;;;;;;;;5049357;28;20238;-70
2022/04/05 08:15:44;;;;;;;8.77;3.87;;;;;;;;;;5050671;28;20576;-69
2022/04/05 08:18:10;;;;;;;6.77;3.67;;;;;;;;;;5048396;28;20218;-70
2022/04/05 08:20:36;;;;;;;6.60;4.20;;;;;;;;;;5049531;28;20280;-70
2022/04/05 08:23:01;;;;;;;6.03;3.93;;;;;;;;;;5050258;28;20651;-70
2022/04/05 08:25:28;;;;;;;5.97;4.00;;;;;;;;;;5050233;28;20200;-69
2022/04/05 08:27:53;;;;;;;4.73;3.87;;;;;;;;;;5041603;28;20666;-70
2022/04/05 08:30:19;;;;;;;4.67;4.07;;;;;;;;;;5049997;28;20174;-70
2022/04/05 08:32:45;;;;;;;6.30;3.70;;;;;;;;;;5029933;28;20177;-69
2022/04/05 08:35:12;;;;;;;5.50;4.07;;;;;;;;;;5045359;28;20189;-69
2022/04/05 08:37:38;;;;;;;5.50;3.83;;;;;;;;;;5048544;28;20698;-69
2022/04/05 08:40:06;;;;;;;7.77;4.60;;;;;;;;;;5045277;28;20205;-70
2022/04/05 08:42:32;;;;;;;6.27;4.50;;;;;;;;;;5047337;28;20255;-69
2022/04/05 08:44:58;;;;;;;6.40;4.80;;;;;;;;;;5045151;28;20216;-69
2022/04/05 08:47:25;;;;;;;8.30;5.27;;;;;;;;;;5055174;28;20193;-70
2022/04/05 08:49:50;;;;;;;8.30;5.17;;;;;;;;;;5044971;28;20705;-70
2022/04/05 08:52:15;;;;;;;8.53;5.90;;;;;;;;;;5048663;28;20182;-70
2022/04/05 08:54:40;;;;;;;11.27;6.57;;;;;;;;;;5043235;28;20249;-70
2022/04/05 08:57:06;;;;;;;9.27;5.63;;;;;;;;;;5048883;28;20186;-70
2022/04/05 08:59:31;;;;;;;10.87;5.47;;;;;;;;;;5051088;28;20193;-70
2022/04/05 09:01:57;;;;;;;11.37;6.87;;;;;;;;;;5046009;28;20623;-70
2022/04/05 09:04:22;;;;;;;10.90;5.93;;;;;;;;;;5050484;28;20181;-70
2022/04/05 09:06:47;;;;;;;9.40;5.33;;;;;;;;;;5050878;28;20189;-71
2022/04/05 09:09:13;;;;;;;8.57;5.17;;;;;;;;;;5048124;28;20240;-70
2022/04/05 09:11:42;;;;;;;8.73;5.60;;;;;;;;;;5041671;28;20647;-70
2022/04/05 09:14:08;;;;;;;11.30;5.40;;;;;;;;;;5050010;28;20181;-70
2022/04/05 09:16:33;;;;;;;7.97;5.40;;;;;;;;;;5049738;28;20182;-70
2022/04/05 09:18:59;;;;;;;9.57;5.50;;;;;;;;;;5049745;28;20619;-70
2022/04/05 09:21:25;;;;;;;13.27;5.37;;;;;;;;;;5050867;28;20216;-69
2022/04/05 09:23:53;;;;;;;9.13;6.00;;;;;;;;;;5040476;28;20452;-70
2022/04/05 09:26:19;;;;;;;10.50;5.63;;;;;;;;;;5045829;28;20661;-70
2022/04/05 09:28:45;;;;;;;7.20;4.87;;;;;;;;;;5039283;28;20584;-70
2022/04/05 09:31:11;;;;;;;8.53;5.43;;;;;;;;;;5047551;28;20181;-69
2022/04/05 09:33:38;;;;;;;10.00;5.13;;;;;;;;;;5048267;28;20264;-70
2022/04/05 09:36:07;;;;;;;8.13;5.43;;;;;;;;;;5039463;28;20664;-70
2022/04/05 09:38:32;;;;;;;8.77;5.03;;;;;;;;;;5048483;28;20209;-70
2022/04/05 09:41:16;;;;;;;7.13;5.17;;;;;;;;;;5049845;28;20216;-70
2022/04/05 09:43:51;;;;;;;7.43;4.63;;;;;;;;;;5046161;28;20166;-69
2022/04/05 09:46:17;;;;;;;6.40;4.40;;;;;;;;;;5045342;28;20256;-70
2022/04/05 09:48:42;;;;;;;9.47;4.93;;;;;;;;;;5051158;28;20797;-70
2022/04/05 09:51:12;;;;;;;6.50;4.30;;;;;;;;;;5049932;28;20192;-69
2022/04/05 09:53:40;;;;;;;7.17;4.50;;;;;;;;;;5050908;28;20169;-69
2022/04/05 09:56:28;;;;;;;7.13;4.50;;;;;;;;;;5046639;28;20698;-70
2022/04/05 09:58:58;;;;;;;7.10;4.47;;;;;;;;;;5045808;28;20256;-69
2022/04/05 10:01:24;;;;;;;6.13;4.20;;;;;;;;;;5043401;28;20186;-70
2022/04/05 10:04:09;;;;;;;5.23;4.00;;;;;;;;;;5043735;28;20652;-70
2022/04/05 10:06:38;;;;;;;7.20;4.17;;;;;;;;;;5050129;28;20181;-70
2022/04/05 10:09:04;;;;;;;7.43;4.40;;;;;;;;;;5049835;28;20201;-69
2022/04/05 10:11:30;;;;;;;5.20;4.23;;;;;;;;;;5048835;28;20227;-70
2022/04/05 10:13:56;;;;;;;7.83;4.23;;;;;;;;;;5049441;28;20186;-70
2022/04/05 10:16:25;;;;;;;6.80;4.00;;;;;;;;;;5048445;28;20196;-69
2022/04/05 10:18:50;;;;;;;7.83;5.10;;;;;;;;;;5045459;28;20198;-70
2022/04/05 10:21:16;;;;;;;6.63;3.90;;;;;;;;;;5045240;28;20228;-67
2022/04/05 10:23:42;;;;;;;5.10;4.10;;;;;;;;;;5045612;28;20178;-70
2022/04/05 10:26:09;;;;;;;5.17;3.97;;;;;;;;;;5048499;28;20189;-70
2022/04/05 10:28:35;;;;;;;5.40;3.57;;;;;;;;;;5049175;28;20201;-70
2022/04/05 10:31:09;;;;;;;7.13;3.97;;;;;;;;;;5046609;28;20566;-69
2022/04/05 10:33:43;;;;;;;8.47;4.17;;;;;;;;;;5044336;28;20178;-69
2022/04/05 10:36:08;;;;;;;10.77;3.80;;;;;;;;;;5041618;28;20173;-69
2022/04/05 10:38:34;;;;;;;8.23;4.03;;;;;;;;;;5046876;28;20223;-69
2022/04/05 10:41:15;;;;;;;8.20;3.70;;;;;;;;;;5055740;28;20386;-70
2022/04/05 10:43:41;;;;;;;5.77;3.90;;;;;;;;;;5055772;28;21702;-70
2022/04/05 10:46:07;;;;;;;7.43;3.57;;;;;;;;;;5054236;28;20644;-69
2022/04/05 10:48:32;;;;;;;8.13;3.77;;;;;;;;;;5055845;28;20224;-69
2022/04/05 10:51:30;;;;;;;7.50;3.93;;;;;;;;;;5056336;28;20173;-69
2022/04/05 10:54:20;;;;;;;7.13;3.37;;;;;;;;;;5050814;28;20213;-69
2022/04/05 10:57:04;;;;;;;5.70;3.77;;;;;;;;;;5049194;28;20277;-70
2022/04/05 10:59:44;;;;;;;6.23;3.80;;;;;;;;;;5054820;28;20208;-69
2022/04/05 11:02:26;;;;;;;8.45;3.80;;;;;;;;;;5051754;28;20190;-68
2022/04/05 11:04:58;;;;;;;13.88;3.75;;;;;;;;;;5051546;28;20177;-70
2022/04/05 11:07:23;;;;;;;9.05;3.78;;;;;;;;;;5054390;28;20202;-69
2022/04/05 11:09:52;;;;;;;5.53;3.58;;;;;;;;;;5056526;28;20616;-68
2022/04/05 11:12:20;;;;;;;5.57;3.70;;;;;;;;;;5054281;28;20213;-70
2022/04/05 11:14:49;;;;;;;8.40;4.45;;;;;;;;;;5055335;28;20213;-69
2022/04/05 11:17:15;;;;;;;7.22;4.28;;;;;;;;;;5054889;28;20189;-69
2022/04/05 11:19:48;;;;;;;6.40;4.03;;;;;;;;;;5055544;28;20208;-70
2022/04/05 11:22:19;;;;;;;5.50;3.80;;;;;;;;;;5054942;28;20209;-70
2022/04/05 11:24:55;;;;;;;5.45;3.97;;;;;;;;;;5054079;28;20541;-69
2022/04/05 11:27:31;;;;;;;7.30;4.07;;;;;;;;;;5053310;28;20210;-69
2022/04/05 11:30:16;;;;;;;5.07;3.60;;;;;;;;;;5054323;28;20231;-70
2022/04/05 11:33:00;;;;;;;8.27;3.88;;;;;;;;;;5033892;28;20204;-70
2022/04/05 11:35:26;;;;;;;8.02;4.03;;;;;;;;;;5050023;28;20211;-69
2022/04/05 11:37:51;;;;;;;6.28;4.05;;;;;;;;;;5041850;28;20205;-69
2022/04/05 11:40:16;;;;;;;6.50;4.35;;;;;;;;;;5046410;28;20209;-69
2022/04/05 11:42:42;;;;;;;6.40;4.13;;;;;;;;;;5050227;28;20170;-69
2022/04/05 11:45:07;;;;;;;5.03;3.55;;;;;;;;;;5051662;28;20438;-69
2022/04/05 11:47:33;;;;;;;5.88;3.78;;;;;;;;;;5053265;28;20267;-70
2022/04/05 11:49:58;;;;;;;5.43;4.45;;;;;;;;;;5051424;28;20177;-69
2022/04/05 11:52:27;;;;;;;5.75;4.22;;;;;;;;;;5050816;28;20196;-70
2022/04/05 11:57:42;;;;;;;9.40;4.57;;;;;;;;;;5052360;28;20720;-69
2022/04/05 12:00:08;;;;;;;6.13;4.43;;;;;;;;;;5051008;28;20698;-69
2022/04/05 12:02:33;;;;;;;6.95;4.45;;;;;;;;;;5051905;28;20225;-69
2022/04/05 12:04:59;;;;;;;7.45;4.25;;;;;;;;;;5050161;28;20658;-69
2022/04/05 12:07:24;;;;;;;6.53;4.25;;;;;;;;;;5051854;28;20200;-70
2022/04/05 12:09:49;;;;;;;8.35;5.10;;;;;;;;;;5050028;28;20185;-70
2022/04/05 12:12:14;;;;;;;9.55;4.60;;;;;;;;;;5050303;28;20201;-69
2022/04/05 12:14:40;;;;;;;8.52;4.63;;;;;;;;;;5050413;28;20186;-69
2022/04/05 12:17:05;;;;;;;6.78;4.35;;;;;;;;;;5040457;28;20189;-69
2022/04/05 12:19:41;;;;;;;7.15;4.90;;;;;;;;;;5045474;28;20280;-69
2022/04/05 12:22:07;;;;;;;6.18;4.38;;;;;;;;;;5049020;28;20177;-70
2022/04/05 12:24:34;;;;;;;6.85;4.85;;;;;;;;;;5047183;28;20681;-70
2022/04/05 12:27:00;;;;;;;6.60;4.43;;;;;;;;;;5049721;28;20652;-70
2022/04/05 12:29:29;;;;;;;7.72;3.97;;;;;;;;;;5048468;28;20202;-69
2022/04/05 12:31:54;;;;;;;5.63;4.57;;;;;;;;;;5051926;28;20651;-70
2022/04/05 12:34:20;;;;;;;9.40;4.47;;;;;;;;;;5051331;28;20196;-69
2022/04/05 12:36:45;;;;;;;5.07;4.18;;;;;;;;;;5049513;28;20633;-68
2022/04/05 12:39:25;;;;;;;5.72;4.78;;;;;;;;;;5044713;28;20718;-68
2022/04/05 12:41:53;;;;;;;9.48;5.00;;;;;;;;;;5031862;28;20476;-68
2022/04/05 12:44:19;;;;;;;5.75;4.43;;;;;;;;;;5050861;28;20590;-69
2022/04/05 12:46:48;;;;;;;7.82;5.72;;;;;;;;;;5050416;28;20178;-69
2022/04/05 12:49:21;;;;;;;6.53;4.60;;;;;;;;;;5044249;28;20281;-69
2022/04/05 12:51:47;;;;;;;9.02;5.22;;;;;;;;;;5045409;28;20174;-69
2022/04/05 12:54:29;;;;;;;7.15;5.47;;;;;;;;;;5047960;28;20494;-69
2022/04/05 12:57:13;;;;;;;6.90;5.45;;;;;;;;;;5043822;28;20681;-69
2022/04/05 12:59:39;;;;;;;7.22;5.18;;;;;;;;;;5049265;28;20198;-69
2022/04/05 13:02:04;;;;;;;8.35;5.22;;;;;;;;;;5050517;28;20177;-69
2022/04/05 13:04:29;;;;;;;6.47;5.40;;;;;;;;;;5050288;28;20738;-69
2022/04/05 13:06:59;;;;;;;7.78;4.78;;;;;;;;;;5050767;28;20165;-70
2022/04/05 13:09:28;;;;;;;7.88;6.00;;;;;;;;;;5047438;28;20197;-69
2022/04/05 13:12:13;;;;;;;10.65;7.70;;;;;;;;;;5048269;28;20188;-69
2022/04/05 13:14:38;;;;;;;9.40;7.87;;;;;;;;;;5049563;28;20186;-70
2022/04/05 13:17:04;;;;;;;11.80;8.48;;;;;;;;;;5050060;28;20196;-69
2022/04/05 13:19:29;;;;;;;10.07;9.07;;;;;;;;;;5046927;28;20289;-68
2022/04/05 13:21:55;;;;;;;10.23;8.27;;;;;;;;;;5047775;28;20643;-68
2022/04/05 13:24:21;;;;;;;11.63;10.07;;;;;;;;;;5044199;28;20194;-68
2022/04/05 13:26:47;;;;;;;9.80;7.57;;;;;;;;;;5046181;28;20186;-68
2022/04/05 13:29:14;;;;;;;10.50;7.57;;;;;;;;;;5048961;28;20201;-69
2022/04/05 13:31:45;;;;;;;12.30;8.87;;;;;;;;;;5049828;28;20213;-69
2022/04/05 13:34:11;;;;;;;9.77;7.67;;;;;;;;;;5048086;28;20170;-70
2022/04/05 13:36:37;;;;;;;7.63;6.33;;;;;;;;;;5049065;28;20235;-68
2022/04/05 13:39:03;;;;;;;8.03;5.87;;;;;;;;;;5050191;28;20201;-68
2022/04/05 13:41:28;;;;;;;8.40;7.17;;;;;;;;;;5047749;28;20201;-68
2022/04/05 13:43:55;;;;;;;10.00;6.63;;;;;;;;;;5039827;28;20697;-68
2022/04/05 13:46:21;;;;;;;10.00;7.17;;;;;;;;;;5048324;28;20532;-68
2022/04/05 13:48:46;;;;;;;10.20;7.07;;;;;;;;;;5047369;28;20193;-68
2022/04/05 13:51:11;;;;;;;8.37;7.30;;;;;;;;;;5048024;28;20249;-69
2022/04/05 13:53:36;;;;;;;9.37;6.90;;;;;;;;;;5047866;28;20553;-68
2022/04/05 13:56:02;;;;;;;9.60;7.50;;;;;;;;;;5050207;28;20185;-69
2022/04/05 13:58:27;;;;;;;8.10;7.20;;;;;;;;;;5046501;28;20683;-68
2022/04/05 14:00:52;;;;;;;8.00;7.03;;;;;;;;;;5048657;28;20197;-69
2022/04/05 14:03:19;;;;;;;6.90;5.90;;;;;;;;;;5049646;28;20742;-69
2022/04/05 14:05:44;;;;;;;6.30;5.43;;;;;;;;;;5047328;28;20177;-69
2022/04/05 14:08:10;;;;;;;7.03;5.77;;;;;;;;;;5047464;28;20562;-69
2022/04/05 14:10:35;;;;;;;7.27;5.37;;;;;;;;;;5046598;28;20177;-70
2022/04/05 14:13:00;;;;;;;6.83;5.57;;;;;;;;;;5048058;28;20191;-69
2022/04/05 14:15:25;;;;;;;10.77;5.15;;;;;;;;;;5048122;28;20237;-69
2022/04/05 14:17:50;;;;;;;6.80;5.43;;;;;;;;;;5050592;28;20211;-69
2022/04/05 14:20:16;;;;;;;8.73;5.67;;;;;;;;;;5049433;28;20612;-69
2022/04/05 14:22:42;;;;;;;6.60;5.43;;;;;;;;;;5053206;28;20234;-70
2022/04/05 14:25:08;;;;;;;13.10;6.77;;;;;;;;;;5051585;28;20250;-68
2022/04/05 14:27:33;;;;;;;7.43;6.50;;;;;;;;;;5047995;28;20216;-70
2022/04/05 14:29:59;;;;;;;10.40;6.63;;;;;;;;;;5048668;28;20731;-69
2022/04/05 14:32:24;;;;;;;10.30;7.47;;;;;;;;;;5047038;28;20169;-70